Cheyenne — 9HAK5 — position and weather

sailwx.info

Track history (hours):
 
Tides and Currents Weather Stations Pressure Air Temp Water Temp Dewpoint Dewpoint Depression Visibility Wind Speed Wind Dir Waves Ship Positions

Cheyenne

Last reported at 2016-Jun-26 20:33 UTC. Time now 2016-Jun-30 08:43 UTC.
Position N 46°55' E 037°59'.

Length 133 m; draft 3.8 m.

Type: Ship. MMSI: 249607000.

Date/timePositionNaut miles runAvg speedWind from/ knotsBaromVisibWave heightAir tempDewpointWater temp
2016-Jun-26 20:33N 46°55' E 037°59'100 4.8
2016-Jun-25 23:33N 45°28' E 036°47'5 5.1
2016-Jun-25 22:33N 45°24' E 036°42'6 5.6
2016-Jun-25 21:33N 45°20' E 036°36'7 6.6
2016-Jun-25 20:33N 45°16' E 036°29'4 3.5
2016-Jun-25 19:32N 45°13' E 036°29'73 4.2
2016-Jun-25 02:06N 44°39' E 034°57'8 5.2
2016-Jun-25 00:33N 44°35' E 034°47'5 5.3
2016-Jun-24 23:33N 44°33' E 034°41'5 5.4
2016-Jun-24 22:33N 44°30' E 034°34'5 5.3
2016-Jun-24 21:33N 44°28' E 034°27'5 5.0
2016-Jun-24 20:33N 44°25' E 034°21'316 6.4
2016-Jun-22 19:27N 40°57' E 028°59'3 1.5
2016-Jun-22 17:24N 40°58' E 028°55'0 0.0
2016-Jun-22 14:18N 40°58' E 028°55'0 0.0
2016-Jun-22 13:24N 40°58' E 028°55'1 0.2
2016-Jun-22 06:23N 40°57' E 028°56'3 4.1
2016-Jun-22 05:34N 40°54' E 028°55'7 6.8
2016-Jun-22 04:31N 40°49' E 028°49'132 4.8
2016-Jun-21 01:19N 39°58' E 026°09'32 6.3
2016-Jun-20 20:17N 39°28' E 025°55'  
Track history (hours):
 
Tides and Currents Weather Stations Pressure Air Temp Water Temp Dewpoint Dewpoint Depression Visibility Wind Speed Wind Dir Waves Ship Positions

Cheyenne

Last reported at 2016-Jun-26 20:33 UTC. Time now 2016-Jun-30 08:43 UTC.
Position N 46°55' E 037°59'.

Length 133 m; draft 3.8 m.

Type: Ship. MMSI: 249607000.

Date/timePositionNaut miles runAvg speedWind from/ knotsBaromVisibWave heightAir tempDewpointWater temp
2016-Jun-26 20:33N 46°55' E 037°59'100 4.8
2016-Jun-25 23:33N 45°28' E 036°47'5 5.1
2016-Jun-25 22:33N 45°24' E 036°42'6 5.6
2016-Jun-25 21:33N 45°20' E 036°36'7 6.6
2016-Jun-25 20:33N 45°16' E 036°29'4 3.5
2016-Jun-25 19:32N 45°13' E 036°29'73 4.2
2016-Jun-25 02:06N 44°39' E 034°57'8 5.2
2016-Jun-25 00:33N 44°35' E 034°47'5 5.3
2016-Jun-24 23:33N 44°33' E 034°41'5 5.4
2016-Jun-24 22:33N 44°30' E 034°34'5 5.3
2016-Jun-24 21:33N 44°28' E 034°27'5 5.0
2016-Jun-24 20:33N 44°25' E 034°21'316 6.4
2016-Jun-22 19:27N 40°57' E 028°59'3 1.5
2016-Jun-22 17:24N 40°58' E 028°55'0 0.0
2016-Jun-22 14:18N 40°58' E 028°55'0 0.0
2016-Jun-22 13:24N 40°58' E 028°55'1 0.2
2016-Jun-22 06:23N 40°57' E 028°56'3 4.1
2016-Jun-22 05:34N 40°54' E 028°55'7 6.8
2016-Jun-22 04:31N 40°49' E 028°49'132 4.8
2016-Jun-21 01:19N 39°58' E 026°09'32 6.3
2016-Jun-20 20:17N 39°28' E 025°55'  

Dump ship's entire track history